Time;durP1;ratioP1;P1;durP2;ratioP2;P2;SDS_P1;SDS_P2;PMS_P1;PMS_P2;Temp;Humidity;BMP_temperature;BMP_pressure;BME280_temperature;BME280_humidity;BME280_pressure;Samples;Min_cycle;Max_cycle;Signal;HPM_P1;HPM_P2
2021/04/02 00:01:45;;;;;;;11.40;2.72;;;;;;;;;;5010939;28;20050;-85
2021/04/02 00:04:11;;;;;;;9.23;2.88;;;;;;;;;;5010450;28;20127;-85
2021/04/02 00:06:37;;;;;;;13.30;3.15;;;;;;;;;;5011746;28;20409;-86
2021/04/02 00:09:04;;;;;;;10.60;3.03;;;;;;;;;;5018281;28;20830;-85
2021/04/02 00:11:30;;;;;;;10.60;3.38;;;;;;;;;;5018378;28;20104;-85
2021/04/02 00:13:56;;;;;;;8.23;2.80;;;;;;;;;;5018200;28;20046;-85
2021/04/02 00:16:23;;;;;;;18.15;3.45;;;;;;;;;;5024540;28;20045;-85
2021/04/02 00:18:52;;;;;;;12.60;2.95;;;;;;;;;;5023445;28;20033;-85
2021/04/02 00:21:18;;;;;;;12.25;3.30;;;;;;;;;;5022592;28;20406;-85
2021/04/02 00:23:45;;;;;;;12.68;2.85;;;;;;;;;;5021285;28;20091;-85
2021/04/02 00:26:16;;;;;;;14.02;3.50;;;;;;;;;;5020464;28;20478;-86
2021/04/02 00:28:43;;;;;;;13.35;3.10;;;;;;;;;;5019464;28;20041;-85
2021/04/02 00:31:09;;;;;;;16.13;2.95;;;;;;;;;;5020549;28;20052;-85
2021/04/02 00:33:36;;;;;;;12.63;3.08;;;;;;;;;;5020885;28;20145;-86
2021/04/02 00:36:03;;;;;;;12.45;2.83;;;;;;;;;;5018173;28;20034;-85
2021/04/02 00:38:29;;;;;;;13.30;3.22;;;;;;;;;;5019620;28;20046;-85
2021/04/02 00:40:59;;;;;;;14.15;3.30;;;;;;;;;;5017283;28;20128;-85
2021/04/02 00:43:30;;;;;;;13.07;3.25;;;;;;;;;;5023984;28;20120;-85
2021/04/02 00:45:56;;;;;;;15.85;3.10;;;;;;;;;;5019057;28;20048;-85
2021/04/02 00:48:23;;;;;;;12.00;2.85;;;;;;;;;;5019941;28;20048;-85
2021/04/02 00:50:51;;;;;;;17.60;3.03;;;;;;;;;;5016295;28;20041;-85
2021/04/02 00:53:18;;;;;;;19.70;3.90;;;;;;;;;;5015220;28;20069;-85
2021/04/02 00:55:45;;;;;;;24.15;3.63;;;;;;;;;;5015115;28;20034;-85
2021/04/02 00:58:14;;;;;;;11.40;2.78;;;;;;;;;;5019887;28;20068;-85
2021/04/02 01:00:41;;;;;;;15.20;3.10;;;;;;;;;;5013487;28;20038;-85
2021/04/02 01:03:08;;;;;;;12.02;3.25;;;;;;;;;;5020284;28;20152;-85
2021/04/02 01:05:36;;;;;;;17.58;3.33;;;;;;;;;;5016907;28;20088;-85
2021/04/02 01:08:05;;;;;;;11.02;2.50;;;;;;;;;;5024639;28;20049;-85
2021/04/02 01:10:32;;;;;;;13.80;3.67;;;;;;;;;;5021641;28;20580;-85
2021/04/02 01:13:07;;;;;;;15.15;2.75;;;;;;;;;;5017512;28;20230;-85
2021/04/02 01:15:53;;;;;;;15.77;2.75;;;;;;;;;;5021107;28;20095;-85
2021/04/02 01:18:27;;;;;;;16.63;2.65;;;;;;;;;;5024464;28;20042;-85
2021/04/02 01:20:56;;;;;;;17.08;2.28;;;;;;;;;;5013686;28;20050;-85
2021/04/02 01:23:24;;;;;;;10.95;2.17;;;;;;;;;;5019144;28;20392;-85
2021/04/02 01:26:02;;;;;;;12.63;2.33;;;;;;;;;;5020047;28;20086;-85
2021/04/02 01:28:33;;;;;;;12.98;2.50;;;;;;;;;;5017226;28;20069;-85
2021/04/02 01:31:00;;;;;;;20.75;2.08;;;;;;;;;;5021338;28;20410;-85
2021/04/02 01:33:27;;;;;;;15.23;2.28;;;;;;;;;;5018226;28;20406;-85
2021/04/02 01:35:55;;;;;;;19.13;2.70;;;;;;;;;;5016306;28;20351;-86
2021/04/02 01:38:23;;;;;;;11.65;2.50;;;;;;;;;;5020607;28;20100;-85
2021/04/02 01:40:51;;;;;;;10.02;2.65;;;;;;;;;;5015601;28;20143;-85
2021/04/02 01:43:21;;;;;;;7.25;2.22;;;;;;;;;;5019087;28;20054;-85
2021/04/02 01:45:48;;;;;;;9.25;1.85;;;;;;;;;;5021278;28;20420;-85
2021/04/02 01:48:15;;;;;;;11.85;1.90;;;;;;;;;;5021680;28;20063;-85
2021/04/02 01:50:43;;;;;;;17.42;3.20;;;;;;;;;;5022681;28;20037;-85
2021/04/02 01:53:10;;;;;;;14.40;2.28;;;;;;;;;;5022516;28;20812;-85
2021/04/02 01:55:37;;;;;;;10.30;2.00;;;;;;;;;;5018102;28;20049;-85
2021/04/02 01:58:04;;;;;;;12.60;2.15;;;;;;;;;;5007576;28;20049;-85
2021/04/02 02:00:33;;;;;;;14.45;3.30;;;;;;;;;;5017800;28;20106;-85
2021/04/02 02:03:00;;;;;;;14.07;2.60;;;;;;;;;;5010237;28;20192;-85
2021/04/02 02:05:28;;;;;;;9.80;3.10;;;;;;;;;;5015658;28;20049;-84
2021/04/02 02:07:55;;;;;;;13.77;2.03;;;;;;;;;;5017228;28;20041;-85
2021/04/02 02:10:22;;;;;;;11.95;2.10;;;;;;;;;;5022826;28;20087;-85
2021/04/02 02:12:50;;;;;;;14.93;2.42;;;;;;;;;;5022946;28;20441;-85
2021/04/02 02:15:17;;;;;;;11.50;2.20;;;;;;;;;;5026082;28;20061;-85
2021/04/02 02:17:45;;;;;;;13.98;3.17;;;;;;;;;;5022699;28;20137;-85
2021/04/02 02:20:11;;;;;;;15.98;2.47;;;;;;;;;;5019872;28;20117;-85
2021/04/02 02:22:39;;;;;;;14.82;2.13;;;;;;;;;;5022712;28;20041;-85
2021/04/02 02:25:07;;;;;;;11.80;2.05;;;;;;;;;;5023116;28;20037;-85
2021/04/02 02:27:34;;;;;;;25.20;2.65;;;;;;;;;;5029308;28;20378;-85
2021/04/02 02:30:00;;;;;;;15.02;2.70;;;;;;;;;;5019379;28;20125;-85
2021/04/02 02:32:28;;;;;;;16.88;2.60;;;;;;;;;;5021440;28;20049;-85
2021/04/02 02:34:54;;;;;;;10.88;2.30;;;;;;;;;;5019128;28;20430;-85
2021/04/02 02:37:21;;;;;;;10.68;2.10;;;;;;;;;;5020748;28;20033;-85
2021/04/02 02:39:47;;;;;;;15.48;2.72;;;;;;;;;;5025807;28;20080;-86
2021/04/02 02:42:14;;;;;;;14.93;2.42;;;;;;;;;;5028740;28;20045;-85
2021/04/02 02:44:40;;;;;;;10.18;2.35;;;;;;;;;;5024527;28;20743;-86
2021/04/02 02:47:07;;;;;;;14.35;3.38;;;;;;;;;;5020243;28;20049;-86
2021/04/02 02:49:35;;;;;;;11.02;2.28;;;;;;;;;;5019661;28;20436;-85
2021/04/02 02:52:01;;;;;;;20.02;3.00;;;;;;;;;;5022843;28;20116;-85
2021/04/02 02:54:29;;;;;;;7.85;2.22;;;;;;;;;;5020479;28;20064;-85
2021/04/02 02:56:57;;;;;;;14.60;2.60;;;;;;;;;;5018713;28;20053;-85
2021/04/02 02:59:24;;;;;;;10.68;2.42;;;;;;;;;;5019245;28;20044;-84
2021/04/02 03:01:51;;;;;;;11.65;2.60;;;;;;;;;;5022577;28;20116;-85
2021/04/02 03:04:18;;;;;;;12.73;3.20;;;;;;;;;;5026987;28;20073;-85
2021/04/02 03:06:45;;;;;;;14.98;2.80;;;;;;;;;;5020883;28;20060;-85
2021/04/02 03:09:15;;;;;;;12.50;2.50;;;;;;;;;;5022535;28;20045;-85
2021/04/02 03:11:42;;;;;;;10.82;2.60;;;;;;;;;;5022379;28;20034;-85
2021/04/02 03:14:10;;;;;;;8.35;2.42;;;;;;;;;;5023861;28;20049;-85
2021/04/02 03:16:41;;;;;;;11.32;2.28;;;;;;;;;;5023033;28;20038;-85
2021/04/02 03:19:08;;;;;;;9.55;2.08;;;;;;;;;;5011473;28;20065;-85
2021/04/02 03:21:35;;;;;;;12.88;2.42;;;;;;;;;;5021640;28;20351;-85
2021/04/02 03:24:05;;;;;;;9.55;2.30;;;;;;;;;;5019177;28;20057;-85
2021/04/02 03:26:32;;;;;;;13.50;2.13;;;;;;;;;;5023394;28;20042;-86
2021/04/02 03:28:59;;;;;;;9.25;2.15;;;;;;;;;;5018959;28;20132;-85
2021/04/02 03:31:27;;;;;;;9.93;2.65;;;;;;;;;;5035581;28;20128;-86
2021/04/02 03:33:56;;;;;;;12.63;2.70;;;;;;;;;;5021896;28;20045;-86
2021/04/02 03:36:25;;;;;;;12.40;2.17;;;;;;;;;;5021376;28;20072;-86
2021/04/02 03:38:51;;;;;;;12.50;2.75;;;;;;;;;;5020750;28;20061;-86
2021/04/02 03:41:22;;;;;;;11.30;2.40;;;;;;;;;;5017651;28;20119;-85
2021/04/02 03:43:49;;;;;;;17.02;2.60;;;;;;;;;;5020574;28;20100;-86
2021/04/02 03:46:16;;;;;;;17.48;2.55;;;;;;;;;;5038984;28;20117;-85
2021/04/02 03:48:43;;;;;;;10.10;2.63;;;;;;;;;;5022463;28;20046;-86
2021/04/02 03:51:10;;;;;;;17.88;2.67;;;;;;;;;;5022032;28;20069;-85
2021/04/02 03:53:39;;;;;;;11.40;1.90;;;;;;;;;;5024788;28;20059;-86
2021/04/02 03:56:07;;;;;;;12.30;2.80;;;;;;;;;;5021323;28;20425;-86
2021/04/02 03:58:33;;;;;;;13.50;2.20;;;;;;;;;;5016500;28;20037;-86
2021/04/02 04:01:07;;;;;;;13.35;2.85;;;;;;;;;;5018551;28;20473;-85
2021/04/02 04:03:34;;;;;;;9.88;2.58;;;;;;;;;;5009115;28;20045;-86
2021/04/02 04:06:01;;;;;;;8.85;1.95;;;;;;;;;;5010173;28;20046;-85
2021/04/02 04:08:28;;;;;;;13.75;1.88;;;;;;;;;;5019041;28;20045;-86
2021/04/02 04:10:55;;;;;;;8.40;2.30;;;;;;;;;;5025129;28;20049;-86
2021/04/02 04:13:23;;;;;;;8.65;1.88;;;;;;;;;;5018727;28;20422;-85
2021/04/02 04:15:49;;;;;;;19.20;3.33;;;;;;;;;;5019160;28;20204;-85
2021/04/02 04:18:17;;;;;;;13.48;2.08;;;;;;;;;;5022045;28;20091;-85
2021/04/02 04:20:44;;;;;;;16.23;2.63;;;;;;;;;;5023566;28;20056;-85
2021/04/02 04:23:13;;;;;;;11.25;2.47;;;;;;;;;;5018074;28;20084;-85
2021/04/02 04:25:40;;;;;;;12.70;2.15;;;;;;;;;;5023196;28;20140;-85
2021/04/02 04:28:08;;;;;;;13.38;2.30;;;;;;;;;;5022801;28;20072;-86
2021/04/02 04:30:35;;;;;;;11.82;2.58;;;;;;;;;;5020938;28;20033;-85
2021/04/02 04:33:03;;;;;;;11.68;2.22;;;;;;;;;;5036552;28;20129;-86
2021/04/02 04:35:30;;;;;;;13.23;2.22;;;;;;;;;;5019024;28;20077;-86
2021/04/02 04:37:58;;;;;;;10.98;2.50;;;;;;;;;;5015177;28;20059;-86
2021/04/02 04:40:25;;;;;;;19.23;2.72;;;;;;;;;;5024211;28;21687;-79
2021/04/02 04:42:51;;;;;;;9.15;2.20;;;;;;;;;;5023499;28;20179;-86
2021/04/02 04:45:19;;;;;;;14.40;2.45;;;;;;;;;;5018918;28;20061;-86
2021/04/02 04:47:46;;;;;;;11.18;2.67;;;;;;;;;;5017989;28;20387;-86
2021/04/02 04:50:13;;;;;;;12.13;3.35;;;;;;;;;;5017054;28;20099;-85
2021/04/02 04:52:43;;;;;;;16.85;2.95;;;;;;;;;;5025539;28;20046;-86
2021/04/02 04:55:10;;;;;;;14.50;3.88;;;;;;;;;;5023048;28;20033;-85
2021/04/02 04:57:37;;;;;;;14.27;2.58;;;;;;;;;;5018427;28;20124;-86
2021/04/02 05:00:04;;;;;;;13.23;2.78;;;;;;;;;;5026152;28;20049;-85
2021/04/02 05:02:31;;;;;;;15.05;2.35;;;;;;;;;;5018931;28;20048;-85
2021/04/02 05:04:59;;;;;;;15.60;2.08;;;;;;;;;;5017563;28;20440;-85
2021/04/02 05:07:26;;;;;;;6.60;2.10;;;;;;;;;;5020729;28;20057;-85
2021/04/02 05:09:54;;;;;;;15.55;2.60;;;;;;;;;;5021441;28;20132;-85
2021/04/02 05:12:21;;;;;;;7.97;2.63;;;;;;;;;;5019425;28;20077;-86
2021/04/02 05:14:48;;;;;;;10.18;2.65;;;;;;;;;;5019985;28;20049;-85
2021/04/02 05:17:15;;;;;;;9.15;2.42;;;;;;;;;;5019547;28;20041;-77
2021/04/02 05:19:42;;;;;;;14.07;3.15;;;;;;;;;;5023207;28;20045;-86
2021/04/02 05:22:09;;;;;;;14.07;2.75;;;;;;;;;;5018653;28;20484;-85
2021/04/02 05:24:37;;;;;;;16.63;3.13;;;;;;;;;;5019800;28;20046;-86
2021/04/02 05:27:04;;;;;;;14.70;3.38;;;;;;;;;;5021176;28;20045;-86
2021/04/02 05:29:30;;;;;;;17.00;3.47;;;;;;;;;;5015128;28;20133;-85
2021/04/02 05:31:57;;;;;;;15.40;2.45;;;;;;;;;;5015869;28;20046;-86
2021/04/02 05:34:24;;;;;;;11.10;2.10;;;;;;;;;;5026863;28;20091;-86
2021/04/02 05:36:50;;;;;;;11.85;2.72;;;;;;;;;;5018818;28;20061;-85
2021/04/02 05:39:17;;;;;;;9.55;1.88;;;;;;;;;;5017226;28;20474;-87
2021/04/02 05:41:44;;;;;;;13.02;2.65;;;;;;;;;;5021008;28;20107;-86
2021/04/02 05:44:11;;;;;;;13.50;2.25;;;;;;;;;;5018832;28;20072;-84
2021/04/02 05:46:41;;;;;;;14.15;2.38;;;;;;;;;;5017277;28;20769;-84
2021/04/02 05:49:08;;;;;;;15.30;2.33;;;;;;;;;;5017921;28;20071;-84
2021/04/02 05:51:34;;;;;;;18.63;2.55;;;;;;;;;;5018100;28;20104;-84
2021/04/02 05:54:01;;;;;;;12.63;2.78;;;;;;;;;;5024093;28;20104;-84
2021/04/02 05:56:27;;;;;;;17.38;2.55;;;;;;;;;;5014459;28;20119;-84
2021/04/02 05:58:54;;;;;;;11.90;2.45;;;;;;;;;;5009051;28;20053;-86
2021/04/02 06:01:21;;;;;;;14.02;3.97;;;;;;;;;;5004273;28;20053;-85
2021/04/02 06:03:47;;;;;;;10.60;2.10;;;;;;;;;;5005205;28;20065;-85
2021/04/02 06:06:14;;;;;;;18.10;3.55;;;;;;;;;;5005534;28;20445;-85
2021/04/02 06:08:43;;;;;;;13.35;2.17;;;;;;;;;;5003152;28;20037;-85
2021/04/02 06:11:10;;;;;;;13.13;2.78;;;;;;;;;;5003137;28;20543;-86
2021/04/02 06:13:36;;;;;;;15.90;2.47;;;;;;;;;;5007123;28;20412;-84
2021/04/02 06:16:07;;;;;;;16.70;2.42;;;;;;;;;;5003230;28;20519;-85
2021/04/02 06:18:40;;;;;;;26.10;3.58;;;;;;;;;;5005549;28;20047;-87
2021/04/02 06:21:06;;;;;;;11.75;2.67;;;;;;;;;;5006683;28;20162;-86
2021/04/02 06:23:35;;;;;;;15.45;3.00;;;;;;;;;;5004440;28;20064;-85
2021/04/02 06:26:04;;;;;;;12.02;2.35;;;;;;;;;;5005230;28;20045;-84
2021/04/02 06:28:33;;;;;;;13.00;3.30;;;;;;;;;;5004710;28;20073;-88
2021/04/02 06:31:02;;;;;;;13.80;2.17;;;;;;;;;;5005523;28;20069;-79
2021/04/02 06:33:31;;;;;;;13.25;1.80;;;;;;;;;;5007757;28;20264;-83
2021/04/02 06:35:58;;;;;;;11.32;2.60;;;;;;;;;;5004852;28;20473;-83
2021/04/02 06:38:29;;;;;;;24.15;2.33;;;;;;;;;;5010530;28;20038;-96
2021/04/02 06:40:59;;;;;;;15.23;2.13;;;;;;;;;;5006739;28;20292;-85
2021/04/02 06:43:33;;;;;;;13.10;2.33;;;;;;;;;;5017133;28;20259;-82
2021/04/02 06:46:04;;;;;;;27.33;11.82;;;;;;;;;;5027913;28;20062;-82
2021/04/02 06:48:30;;;;;;;21.85;3.72;;;;;;;;;;5023890;28;20057;-83
2021/04/02 06:50:57;;;;;;;11.40;2.78;;;;;;;;;;5035408;28;20125;-86
2021/04/02 06:53:24;;;;;;;14.77;2.17;;;;;;;;;;5018925;28;20041;-85
2021/04/02 06:55:52;;;;;;;11.43;2.25;;;;;;;;;;5019818;28;20050;-81
2021/04/02 06:58:21;;;;;;;15.73;4.80;;;;;;;;;;5019027;28;20087;-81
2021/04/02 07:00:47;;;;;;;18.25;2.30;;;;;;;;;;5030204;28;20047;-79
2021/04/02 07:03:16;;;;;;;16.65;3.40;;;;;;;;;;5027199;28;20044;-80
2021/04/02 07:05:42;;;;;;;16.60;2.47;;;;;;;;;;5023566;28;20037;-80
2021/04/02 07:08:09;;;;;;;11.45;1.70;;;;;;;;;;5030701;28;20041;-80
2021/04/02 07:10:37;;;;;;;10.25;2.67;;;;;;;;;;5021145;28;20046;-79
2021/04/02 07:13:06;;;;;;;16.08;2.30;;;;;;;;;;5026614;28;20045;-80
2021/04/02 07:18:38;;;;;;;14.80;3.58;;;;;;;;;;5122272;27;20335;-76
2021/04/02 07:21:06;;;;;;;11.68;2.03;;;;;;;;;;5107348;28;20066;-66
2021/04/02 07:23:33;;;;;;;12.60;2.38;;;;;;;;;;5106758;28;20040;-66
2021/04/02 07:26:00;;;;;;;21.65;4.20;;;;;;;;;;5106347;28;20047;-67
2021/04/02 07:28:26;;;;;;;12.50;2.35;;;;;;;;;;5106275;28;20044;-67
2021/04/02 07:30:53;;;;;;;16.05;2.00;;;;;;;;;;5106303;28;20088;-82
2021/04/02 07:33:20;;;;;;;14.52;2.00;;;;;;;;;;5085406;28;20437;-76
2021/04/02 07:35:58;;;;;;;11.95;2.17;;;;;;;;;;5100416;28;20044;-77
2021/04/02 07:38:26;;;;;;;14.02;2.80;;;;;;;;;;5102369;28;20040;-77
2021/04/02 07:40:53;;;;;;;17.65;3.10;;;;;;;;;;5102194;28;20054;-77
2021/04/02 07:43:19;;;;;;;13.23;2.67;;;;;;;;;;5104156;28;20055;-77
2021/04/02 07:45:52;;;;;;;15.18;2.60;;;;;;;;;;5102821;28;20466;-76
2021/04/02 07:48:23;;;;;;;12.35;1.88;;;;;;;;;;5103046;28;20040;-76
2021/04/02 07:50:50;;;;;;;8.18;2.00;;;;;;;;;;5103704;28;20379;-77
2021/04/02 07:53:24;;;;;;;16.23;2.42;;;;;;;;;;5102554;28;20520;-76
2021/04/02 07:56:10;;;;;;;16.13;2.65;;;;;;;;;;5100845;28;20103;-77
2021/04/02 07:58:51;;;;;;;14.32;2.55;;;;;;;;;;5095397;28;20095;-78
2021/04/02 08:01:19;;;;;;;15.32;2.65;;;;;;;;;;5104311;28;20747;-78
2021/04/02 08:03:47;;;;;;;20.17;2.63;;;;;;;;;;5103080;28;20131;-67
2021/04/02 08:06:32;;;;;;;16.85;2.45;;;;;;;;;;5100083;28;20442;-66
2021/04/02 08:09:00;;;;;;;12.50;2.15;;;;;;;;;;5102846;28;20469;-67
2021/04/02 08:11:30;;;;;;;19.90;4.25;;;;;;;;;;5100229;28;20040;-69
2021/04/02 08:13:58;;;;;;;15.68;2.65;;;;;;;;;;5080178;28;20054;-67
2021/04/02 08:16:50;;;;;;;10.57;2.83;;;;;;;;;;5109756;28;20059;-67
2021/04/02 08:19:19;;;;;;;25.83;2.80;;;;;;;;;;5106961;28;20221;-68
2021/04/02 08:21:56;;;;;;;15.20;2.53;;;;;;;;;;5107383;27;20044;-67
2021/04/02 08:24:24;;;;;;;16.20;2.22;;;;;;;;;;5107579;28;20510;-68
2021/04/02 08:26:51;;;;;;;15.48;2.78;;;;;;;;;;5108636;28;20036;-68
2021/04/02 08:29:19;;;;;;;15.65;2.30;;;;;;;;;;5093058;28;20059;-69
2021/04/02 08:31:49;;;;;;;17.25;2.70;;;;;;;;;;5090972;28;20035;-69
2021/04/02 08:34:17;;;;;;;16.90;2.72;;;;;;;;;;5090087;28;20069;-68
2021/04/02 08:36:45;;;;;;;14.70;2.20;;;;;;;;;;5075476;28;20036;-67
2021/04/02 08:39:11;;;;;;;13.93;2.40;;;;;;;;;;5090623;28;20047;-67
2021/04/02 08:41:37;;;;;;;16.40;2.75;;;;;;;;;;5091192;28;20475;-68
2021/04/02 08:44:04;;;;;;;10.05;2.30;;;;;;;;;;5090785;28;20548;-68
2021/04/02 08:46:34;;;;;;;17.10;2.83;;;;;;;;;;5090494;28;20047;-85
2021/04/02 08:49:01;;;;;;;17.33;2.70;;;;;;;;;;5095386;28;20058;-68
2021/04/02 08:51:27;;;;;;;9.52;1.90;;;;;;;;;;5089701;28;20040;-68
2021/04/02 08:53:53;;;;;;;11.82;1.88;;;;;;;;;;5095596;28;20148;-68
2021/04/02 08:56:20;;;;;;;16.10;2.30;;;;;;;;;;5093999;28;20108;-68
2021/04/02 08:58:48;;;;;;;9.18;2.10;;;;;;;;;;5101399;28;20133;-68
2021/04/02 09:01:17;;;;;;;9.13;2.00;;;;;;;;;;5092856;28;20046;-68
2021/04/02 09:03:45;;;;;;;11.93;1.83;;;;;;;;;;5086803;28;20036;-68
2021/04/02 09:06:11;;;;;;;10.73;2.25;;;;;;;;;;5093719;28;20044;-68
2021/04/02 09:08:38;;;;;;;13.57;2.70;;;;;;;;;;5090518;28;20047;-68
2021/04/02 09:11:08;;;;;;;18.02;2.63;;;;;;;;;;5091598;28;20040;-68
2021/04/02 09:13:37;;;;;;;21.25;3.53;;;;;;;;;;5074567;28;20394;-68
2021/04/02 09:16:05;;;;;;;16.23;2.58;;;;;;;;;;5092061;28;20058;-68
2021/04/02 09:18:31;;;;;;;16.25;2.90;;;;;;;;;;5066484;28;20056;-68
2021/04/02 09:20:58;;;;;;;14.48;2.47;;;;;;;;;;5091630;28;20505;-68
2021/04/02 09:23:25;;;;;;;13.40;1.70;;;;;;;;;;5089058;28;20048;-68
2021/04/02 09:25:53;;;;;;;17.13;2.95;;;;;;;;;;5088953;28;20114;-84
2021/04/02 09:28:23;;;;;;;12.88;2.40;;;;;;;;;;5095401;28;20043;-88
2021/04/02 09:30:49;;;;;;;11.05;2.15;;;;;;;;;;5090470;28;20047;-85
2021/04/02 09:33:18;;;;;;;13.30;2.40;;;;;;;;;;5080283;28;20129;-69
2021/04/02 09:35:44;;;;;;;11.50;3.00;;;;;;;;;;5079630;28;20044;-68
2021/04/02 09:38:11;;;;;;;16.60;2.20;;;;;;;;;;5072771;28;21772;-69
2021/04/02 09:40:38;;;;;;;14.80;2.40;;;;;;;;;;5069942;28;20045;-69
2021/04/02 09:43:04;;;;;;;15.70;2.67;;;;;;;;;;5080915;28;20399;-68
2021/04/02 09:45:30;;;;;;;15.65;2.17;;;;;;;;;;5078485;28;20044;-70
2021/04/02 09:47:58;;;;;;;22.13;2.33;;;;;;;;;;5086402;28;20036;-69
2021/04/02 09:50:25;;;;;;;20.38;2.58;;;;;;;;;;5089203;28;20048;-69
2021/04/02 09:52:51;;;;;;;16.67;2.58;;;;;;;;;;5087936;28;20359;-69
2021/04/02 09:55:18;;;;;;;16.58;4.20;;;;;;;;;;5087440;28;20036;-69
2021/04/02 09:57:44;;;;;;;20.45;4.57;;;;;;;;;;5080884;28;20064;-69
2021/04/02 10:00:12;;;;;;;17.27;2.50;;;;;;;;;;5084396;28;20036;-69
2021/04/02 10:06:00;;;;;;;11.90;2.55;;;;;;;;;;5128561;27;20410;-75
2021/04/02 19:13:46;;;;;;;29.83;7.20;;;;;;;;;;5038276;27;984023;-70
2021/04/02 19:16:13;;;;;;;38.25;8.90;;;;;;;;;;5041722;28;20598;-70
2021/04/02 19:18:41;;;;;;;30.35;6.30;;;;;;;;;;5045699;28;20049;-70
2021/04/02 19:21:08;;;;;;;31.85;5.65;;;;;;;;;;5040573;28;20041;-69
2021/04/02 19:23:34;;;;;;;40.20;7.05;;;;;;;;;;5042133;28;20136;-69
2021/04/02 19:26:00;;;;;;;30.63;5.72;;;;;;;;;;5027434;28;20059;-69
2021/04/02 19:28:27;;;;;;;36.22;5.70;;;;;;;;;;5044245;28;20091;-69
2021/04/02 19:30:54;;;;;;;25.35;5.45;;;;;;;;;;5043173;28;20091;-70
2021/04/02 19:33:20;;;;;;;23.95;4.60;;;;;;;;;;5045370;28;20177;-71
2021/04/02 19:35:46;;;;;;;28.63;4.45;;;;;;;;;;5034853;28;20069;-71
2021/04/02 19:38:15;;;;;;;34.63;4.88;;;;;;;;;;5044399;28;20073;-71
2021/04/02 19:40:42;;;;;;;26.60;5.05;;;;;;;;;;5040059;28;20128;-71
2021/04/02 19:43:09;;;;;;;29.35;5.00;;;;;;;;;;5039509;28;20033;-71
2021/04/02 19:45:35;;;;;;;27.10;4.60;;;;;;;;;;5041982;28;20087;-71
2021/04/02 19:48:01;;;;;;;23.63;4.18;;;;;;;;;;5024713;28;20053;-71
2021/04/02 19:50:29;;;;;;;32.65;5.70;;;;;;;;;;5040242;28;20038;-71
2021/04/02 19:52:55;;;;;;;25.98;4.80;;;;;;;;;;5030343;28;20118;-70
2021/04/02 19:55:22;;;;;;;23.67;5.03;;;;;;;;;;5041501;28;20037;-71
2021/04/02 19:57:48;;;;;;;19.38;4.22;;;;;;;;;;5042385;28;20052;-70
2021/04/02 20:00:17;;;;;;;31.45;4.90;;;;;;;;;;5043485;28;20041;-71
2021/04/02 20:02:43;;;;;;;28.60;4.55;;;;;;;;;;5037513;28;20107;-71
2021/04/02 20:05:10;;;;;;;22.45;4.47;;;;;;;;;;5044255;28;20068;-71
2021/04/02 20:07:37;;;;;;;23.45;4.07;;;;;;;;;;5044908;28;20052;-71
2021/04/02 20:10:05;;;;;;;27.60;3.90;;;;;;;;;;5042343;28;20045;-71
2021/04/02 20:12:31;;;;;;;25.05;4.68;;;;;;;;;;5041785;28;20513;-71
2021/04/02 20:14:58;;;;;;;17.65;4.10;;;;;;;;;;5044601;28;20456;-71
2021/04/02 20:17:25;;;;;;;27.63;3.83;;;;;;;;;;5044483;28;20216;-71
2021/04/02 20:19:51;;;;;;;30.20;4.45;;;;;;;;;;5041588;28;20041;-71
2021/04/02 20:22:17;;;;;;;25.73;4.13;;;;;;;;;;5044180;28;20132;-71
2021/04/02 20:24:44;;;;;;;23.10;3.53;;;;;;;;;;5030523;28;20053;-71
2021/04/02 20:27:10;;;;;;;26.73;3.63;;;;;;;;;;5031183;28;20497;-71
2021/04/02 20:29:37;;;;;;;27.05;3.88;;;;;;;;;;5029160;28;20142;-71
2021/04/02 20:32:04;;;;;;;23.33;3.47;;;;;;;;;;5032396;28;20043;-71
2021/04/02 20:34:31;;;;;;;24.63;3.40;;;;;;;;;;5027988;28;20091;-71
2021/04/02 20:36:57;;;;;;;20.50;3.00;;;;;;;;;;5024105;28;20037;-71
2021/04/02 20:39:24;;;;;;;23.95;3.10;;;;;;;;;;5029567;28;20088;-71
2021/04/02 20:41:50;;;;;;;13.77;3.00;;;;;;;;;;5029733;28;20049;-71
2021/04/02 20:44:17;;;;;;;16.77;2.92;;;;;;;;;;5029281;28;20046;-71
2021/04/02 20:46:44;;;;;;;22.50;2.95;;;;;;;;;;5029283;28;20061;-71
2021/04/02 20:49:10;;;;;;;17.98;2.72;;;;;;;;;;5025005;28;20504;-70
2021/04/02 20:51:36;;;;;;;16.05;2.90;;;;;;;;;;5031518;28;20141;-70
2021/04/02 20:54:03;;;;;;;16.00;2.67;;;;;;;;;;5028008;28;20099;-70
2021/04/02 20:56:32;;;;;;;20.92;2.95;;;;;;;;;;5024376;28;20037;-71
2021/04/02 20:59:00;;;;;;;25.45;6.05;;;;;;;;;;5027821;28;20080;-71
2021/04/02 21:01:26;;;;;;;33.80;3.60;;;;;;;;;;5029151;28;20056;-71
2021/04/02 21:03:52;;;;;;;26.23;4.30;;;;;;;;;;5030852;28;20038;-71
2021/04/02 21:06:19;;;;;;;25.58;3.80;;;;;;;;;;5033854;28;20049;-71
2021/04/02 21:08:45;;;;;;;29.42;4.68;;;;;;;;;;5028339;28;20045;-71
2021/04/02 21:11:11;;;;;;;26.00;5.80;;;;;;;;;;5029400;28;20041;-71
2021/04/02 21:13:38;;;;;;;24.25;3.85;;;;;;;;;;5027853;28;20061;-71
2021/04/02 21:16:04;;;;;;;23.42;3.95;;;;;;;;;;5030479;28;20136;-71
2021/04/02 21:18:31;;;;;;;31.33;5.30;;;;;;;;;;5026522;28;20048;-71
2021/04/02 21:20:58;;;;;;;24.58;4.50;;;;;;;;;;5030235;28;20123;-71
2021/04/02 21:23:24;;;;;;;23.80;4.50;;;;;;;;;;5028022;28;20433;-72
2021/04/02 21:25:50;;;;;;;18.05;3.30;;;;;;;;;;5027508;28;20138;-72
2021/04/02 21:28:17;;;;;;;17.20;3.70;;;;;;;;;;5019472;28;20124;-71
2021/04/02 21:30:43;;;;;;;26.40;3.60;;;;;;;;;;5023374;28;20045;-72
2021/04/02 21:33:09;;;;;;;27.38;3.83;;;;;;;;;;5032065;28;20060;-72
2021/04/02 21:35:36;;;;;;;29.60;3.92;;;;;;;;;;5014958;28;20045;-72
2021/04/02 21:38:02;;;;;;;22.38;3.72;;;;;;;;;;5027855;28;20544;-71
2021/04/02 21:40:28;;;;;;;26.95;3.53;;;;;;;;;;5026783;28;20501;-71
2021/04/02 21:42:55;;;;;;;27.00;4.38;;;;;;;;;;5024807;28;20076;-72
2021/04/02 21:45:21;;;;;;;20.05;3.20;;;;;;;;;;5020152;28;20042;-71
2021/04/02 21:47:48;;;;;;;24.88;4.05;;;;;;;;;;5029762;28;20049;-72
2021/04/02 21:50:16;;;;;;;21.13;3.47;;;;;;;;;;5026545;28;20867;-72
2021/04/02 21:52:42;;;;;;;19.52;3.25;;;;;;;;;;5024350;28;20490;-72
2021/04/02 21:55:10;;;;;;;20.05;3.42;;;;;;;;;;5031528;28;20345;-72
2021/04/02 21:57:36;;;;;;;29.10;4.05;;;;;;;;;;5027061;28;20037;-71
2021/04/02 22:00:06;;;;;;;24.95;4.85;;;;;;;;;;5027402;28;20469;-72
2021/04/02 22:02:33;;;;;;;22.80;3.78;;;;;;;;;;5026503;28;20064;-72
2021/04/02 22:04:59;;;;;;;28.88;5.57;;;;;;;;;;5022483;28;20472;-71
2021/04/02 22:07:25;;;;;;;35.53;4.40;;;;;;;;;;5023581;28;20461;-72
2021/04/02 22:09:51;;;;;;;22.98;3.85;;;;;;;;;;5027857;28;20450;-72
2021/04/02 22:12:18;;;;;;;29.45;4.93;;;;;;;;;;5026327;28;20049;-72
2021/04/02 22:14:44;;;;;;;25.50;5.05;;;;;;;;;;5027515;28;20132;-72
2021/04/02 22:17:11;;;;;;;26.33;4.43;;;;;;;;;;5028442;28;20134;-72
2021/04/02 22:19:38;;;;;;;28.13;4.90;;;;;;;;;;5026180;28;20064;-71
2021/04/02 22:22:04;;;;;;;30.95;4.30;;;;;;;;;;5024377;28;20434;-72
2021/04/02 22:24:30;;;;;;;26.05;4.47;;;;;;;;;;5026096;28;20449;-71
2021/04/02 22:26:57;;;;;;;23.15;4.15;;;;;;;;;;5026632;28;20123;-72
2021/04/02 22:29:23;;;;;;;26.40;4.30;;;;;;;;;;5029383;28;20045;-72
2021/04/02 22:31:50;;;;;;;26.63;4.00;;;;;;;;;;5027421;28;20389;-72
2021/04/02 22:34:16;;;;;;;32.20;4.82;;;;;;;;;;5021019;28;20553;-72
2021/04/02 22:36:42;;;;;;;30.05;3.63;;;;;;;;;;5020859;28;20053;-71
2021/04/02 22:39:09;;;;;;;28.75;4.47;;;;;;;;;;5027031;28;20072;-71
2021/04/02 22:41:36;;;;;;;25.75;4.40;;;;;;;;;;5028233;28;20041;-72
2021/04/02 22:44:02;;;;;;;28.38;3.45;;;;;;;;;;5024378;28;20041;-72
2021/04/02 22:46:28;;;;;;;25.67;5.57;;;;;;;;;;5024583;28;20476;-71
2021/04/02 22:48:55;;;;;;;29.00;5.18;;;;;;;;;;5030750;28;20033;-72
2021/04/02 22:51:21;;;;;;;33.28;4.60;;;;;;;;;;5031159;28;20107;-72
2021/04/02 22:53:48;;;;;;;20.35;3.75;;;;;;;;;;5023787;28;20052;-71
2021/04/02 22:56:14;;;;;;;26.10;4.10;;;;;;;;;;5023771;28;20083;-72
2021/04/02 22:58:41;;;;;;;25.00;5.47;;;;;;;;;;5025668;28;20092;-72
2021/04/02 23:01:08;;;;;;;18.00;4.78;;;;;;;;;;5023488;28;20099;-72
2021/04/02 23:03:34;;;;;;;33.55;4.70;;;;;;;;;;5017927;28;20134;-72
2021/04/02 23:06:03;;;;;;;29.25;4.78;;;;;;;;;;5028993;28;20131;-72
2021/04/02 23:08:30;;;;;;;23.85;4.28;;;;;;;;;;5025639;28;20048;-72
2021/04/02 23:10:57;;;;;;;33.97;6.90;;;;;;;;;;5026014;28;20038;-72
2021/04/02 23:13:24;;;;;;;33.25;4.82;;;;;;;;;;5024868;28;20065;-72
2021/04/02 23:15:50;;;;;;;36.15;5.55;;;;;;;;;;5026587;28;20041;-72
2021/04/02 23:18:16;;;;;;;32.67;6.85;;;;;;;;;;5028011;28;20471;-72
2021/04/02 23:20:44;;;;;;;28.65;5.05;;;;;;;;;;5024702;28;20045;-71
2021/04/02 23:23:10;;;;;;;32.20;5.05;;;;;;;;;;5025821;28;20049;-72
2021/04/02 23:25:37;;;;;;;27.20;4.78;;;;;;;;;;5032831;28;20060;-72
2021/04/02 23:28:03;;;;;;;30.70;4.93;;;;;;;;;;5028770;28;20049;-71
2021/04/02 23:30:30;;;;;;;29.77;5.40;;;;;;;;;;5022648;28;20480;-72
2021/04/02 23:32:58;;;;;;;31.75;4.93;;;;;;;;;;5027713;28;20475;-72
2021/04/02 23:35:26;;;;;;;38.08;4.75;;;;;;;;;;5025463;28;20056;-71
2021/04/02 23:37:53;;;;;;;34.75;7.13;;;;;;;;;;5022939;28;20037;-71
2021/04/02 23:40:20;;;;;;;28.42;5.03;;;;;;;;;;5024568;28;20033;-72
2021/04/02 23:42:50;;;;;;;42.95;6.50;;;;;;;;;;5027340;28;20442;-72
2021/04/02 23:45:16;;;;;;;30.50;4.70;;;;;;;;;;5025926;28;20437;-72